sensor_id;sensor_type;location;lat;lon;timestamp;temperature;humidity
79711;DHT22;69465;51.630;6.570;2023-05-19T00:00:33;9.60;48.40
79711;DHT22;69465;51.630;6.570;2023-05-19T00:03:00;9.60;48.60
79711;DHT22;69465;51.630;6.570;2023-05-19T00:05:27;9.50;48.70
79711;DHT22;69465;51.630;6.570;2023-05-19T00:07:58;9.50;48.30
79711;DHT22;69465;51.630;6.570;2023-05-19T00:10:25;9.50;48.40
79711;DHT22;69465;51.630;6.570;2023-05-19T00:12:51;9.40;48.10
79711;DHT22;69465;51.630;6.570;2023-05-19T00:15:19;9.40;48.40
79711;DHT22;69465;51.630;6.570;2023-05-19T00:17:46;9.40;48.40
79711;DHT22;69465;51.630;6.570;2023-05-19T00:20:13;9.40;48.50
79711;DHT22;69465;51.630;6.570;2023-05-19T00:22:39;9.40;48.80
79711;DHT22;69465;51.630;6.570;2023-05-19T00:25:06;9.40;48.50
79711;DHT22;69465;51.630;6.570;2023-05-19T00:27:33;9.40;48.80
79711;DHT22;69465;51.630;6.570;2023-05-19T00:30:00;9.30;48.40
79711;DHT22;69465;51.630;6.570;2023-05-19T00:32:26;9.40;48.70
79711;DHT22;69465;51.630;6.570;2023-05-19T00:34:53;9.30;48.70
79711;DHT22;69465;51.630;6.570;2023-05-19T00:37:20;9.30;49.30
79711;DHT22;69465;51.630;6.570;2023-05-19T00:39:47;9.40;50.30
79711;DHT22;69465;51.630;6.570;2023-05-19T00:42:14;9.30;50.90
79711;DHT22;69465;51.630;6.570;2023-05-19T00:44:40;9.30;50.20
79711;DHT22;69465;51.630;6.570;2023-05-19T00:47:08;9.30;50.20
79711;DHT22;69465;51.630;6.570;2023-05-19T00:49:35;9.30;50.20
79711;DHT22;69465;51.630;6.570;2023-05-19T00:52:02;9.30;50.20
79711;DHT22;69465;51.630;6.570;2023-05-19T00:54:30;9.20;50.10
79711;DHT22;69465;51.630;6.570;2023-05-19T00:56:58;9.20;50.10
79711;DHT22;69465;51.630;6.570;2023-05-19T00:59:25;9.20;50.10
79711;DHT22;69465;51.630;6.570;2023-05-19T01:01:52;9.20;50.10
79711;DHT22;69465;51.630;6.570;2023-05-19T01:04:20;9.20;50.10
79711;DHT22;69465;51.630;6.570;2023-05-19T01:06:47;9.10;50.00
79711;DHT22;69465;51.630;6.570;2023-05-19T01:09:15;9.10;50.10
79711;DHT22;69465;51.630;6.570;2023-05-19T01:11:42;9.10;50.00
79711;DHT22;69465;51.630;6.570;2023-05-19T01:14:09;9.10;50.00
79711;DHT22;69465;51.630;6.570;2023-05-19T01:16:39;9.00;49.90
79711;DHT22;69465;51.630;6.570;2023-05-19T01:30:34;8.80;50.70
79711;DHT22;69465;51.630;6.570;2023-05-19T01:33:06;8.80;51.10
79711;DHT22;69465;51.630;6.570;2023-05-19T01:35:37;8.70;50.60
79711;DHT22;69465;51.630;6.570;2023-05-19T01:38:08;8.70;50.90
79711;DHT22;69465;51.630;6.570;2023-05-19T01:40:35;8.60;51.00
79711;DHT22;69465;51.630;6.570;2023-05-19T01:43:03;8.60;51.20
79711;DHT22;69465;51.630;6.570;2023-05-19T01:45:32;8.60;51.90
79711;DHT22;69465;51.630;6.570;2023-05-19T01:48:01;8.60;52.00
79711;DHT22;69465;51.630;6.570;2023-05-19T01:50:29;8.60;51.70
79711;DHT22;69465;51.630;6.570;2023-05-19T01:52:56;8.50;51.30
79711;DHT22;69465;51.630;6.570;2023-05-19T01:55:23;8.50;51.00
79711;DHT22;69465;51.630;6.570;2023-05-19T01:58:09;8.50;51.50
79711;DHT22;69465;51.630;6.570;2023-05-19T02:11:21;8.40;52.50
79711;DHT22;69465;51.630;6.570;2023-05-19T02:13:49;8.40;52.60
79711;DHT22;69465;51.630;6.570;2023-05-19T02:16:20;8.40;52.40
79711;DHT22;69465;51.630;6.570;2023-05-19T02:18:50;8.40;52.20
79711;DHT22;69465;51.630;6.570;2023-05-19T02:21:17;8.30;51.90
79711;DHT22;69465;51.630;6.570;2023-05-19T02:23:45;8.30;51.80
79711;DHT22;69465;51.630;6.570;2023-05-19T02:26:12;8.30;52.10
79711;DHT22;69465;51.630;6.570;2023-05-19T02:28:39;8.30;52.20
79711;DHT22;69465;51.630;6.570;2023-05-19T02:31:05;8.30;52.40
79711;DHT22;69465;51.630;6.570;2023-05-19T02:33:32;8.30;52.50
79711;DHT22;69465;51.630;6.570;2023-05-19T02:35:59;8.20;52.90
79711;DHT22;69465;51.630;6.570;2023-05-19T02:38:25;8.20;53.10
79711;DHT22;69465;51.630;6.570;2023-05-19T02:40:52;8.20;53.50
79711;DHT22;69465;51.630;6.570;2023-05-19T02:43:19;8.20;53.50
79711;DHT22;69465;51.630;6.570;2023-05-19T02:45:46;8.20;53.50
79711;DHT22;69465;51.630;6.570;2023-05-19T02:48:12;8.20;53.60
79711;DHT22;69465;51.630;6.570;2023-05-19T02:53:07;8.10;53.70
79711;DHT22;69465;51.630;6.570;2023-05-19T02:55:34;8.00;53.20
79711;DHT22;69465;51.630;6.570;2023-05-19T02:58:00;8.00;53.70
79711;DHT22;69465;51.630;6.570;2023-05-19T03:00:27;8.00;53.70
79711;DHT22;69465;51.630;6.570;2023-05-19T03:02:54;7.90;53.60
79711;DHT22;69465;51.630;6.570;2023-05-19T03:05:20;8.00;53.80
79711;DHT22;69465;51.630;6.570;2023-05-19T03:07:47;7.80;53.50
79711;DHT22;69465;51.630;6.570;2023-05-19T03:10:14;7.80;53.60
79711;DHT22;69465;51.630;6.570;2023-05-19T03:12:40;7.80;53.80
79711;DHT22;69465;51.630;6.570;2023-05-19T03:15:08;7.80;54.30
79711;DHT22;69465;51.630;6.570;2023-05-19T03:17:34;7.80;54.20
79711;DHT22;69465;51.630;6.570;2023-05-19T03:20:02;7.80;54.30
79711;DHT22;69465;51.630;6.570;2023-05-19T03:22:29;7.80;54.10
79711;DHT22;69465;51.630;6.570;2023-05-19T03:24:56;7.80;54.70
79711;DHT22;69465;51.630;6.570;2023-05-19T03:27:23;7.80;54.60
79711;DHT22;69465;51.630;6.570;2023-05-19T03:29:50;7.80;54.90
79711;DHT22;69465;51.630;6.570;2023-05-19T03:32:17;7.80;55.00
79711;DHT22;69465;51.630;6.570;2023-05-19T03:34:44;7.80;55.20
79711;DHT22;69465;51.630;6.570;2023-05-19T03:37:11;7.80;55.60
79711;DHT22;69465;51.630;6.570;2023-05-19T03:39:37;7.80;55.80
79711;DHT22;69465;51.630;6.570;2023-05-19T03:42:05;7.70;55.50
79711;DHT22;69465;51.630;6.570;2023-05-19T03:44:31;7.70;56.40
79711;DHT22;69465;51.630;6.570;2023-05-19T03:46:58;7.70;55.70
79711;DHT22;69465;51.630;6.570;2023-05-19T03:49:25;7.80;55.70
79711;DHT22;69465;51.630;6.570;2023-05-19T03:51:52;7.80;55.30
79711;DHT22;69465;51.630;6.570;2023-05-19T03:54:18;7.80;55.70
79711;DHT22;69465;51.630;6.570;2023-05-19T03:56:45;7.80;55.70
79711;DHT22;69465;51.630;6.570;2023-05-19T03:59:12;7.80;55.70
79711;DHT22;69465;51.630;6.570;2023-05-19T04:01:39;7.90;55.10
79711;DHT22;69465;51.630;6.570;2023-05-19T04:04:06;7.90;55.40
79711;DHT22;69465;51.630;6.570;2023-05-19T04:06:33;7.90;55.90
79711;DHT22;69465;51.630;6.570;2023-05-19T04:09:01;8.00;55.90
79711;DHT22;69465;51.630;6.570;2023-05-19T04:11:30;8.10;55.70
79711;DHT22;69465;51.630;6.570;2023-05-19T04:13:57;8.10;55.80
79711;DHT22;69465;51.630;6.570;2023-05-19T04:16:24;8.20;55.90
79711;DHT22;69465;51.630;6.570;2023-05-19T04:18:51;8.20;56.00
79711;DHT22;69465;51.630;6.570;2023-05-19T04:21:18;8.30;55.70
79711;DHT22;69465;51.630;6.570;2023-05-19T04:23:44;8.40;56.10
79711;DHT22;69465;51.630;6.570;2023-05-19T04:26:11;8.50;55.90
79711;DHT22;69465;51.630;6.570;2023-05-19T04:28:41;8.60;55.70
79711;DHT22;69465;51.630;6.570;2023-05-19T04:31:08;8.60;55.20
79711;DHT22;69465;51.630;6.570;2023-05-19T04:33:35;8.80;54.90
79711;DHT22;69465;51.630;6.570;2023-05-19T04:36:03;8.90;55.00
79711;DHT22;69465;51.630;6.570;2023-05-19T04:38:30;9.00;54.60
79711;DHT22;69465;51.630;6.570;2023-05-19T04:40:56;9.10;54.60
79711;DHT22;69465;51.630;6.570;2023-05-19T04:43:23;9.20;54.60
79711;DHT22;69465;51.630;6.570;2023-05-19T04:45:49;9.30;54.60
79711;DHT22;69465;51.630;6.570;2023-05-19T04:48:16;9.50;53.80
79711;DHT22;69465;51.630;6.570;2023-05-19T04:50:43;9.60;53.50
79711;DHT22;69465;51.630;6.570;2023-05-19T04:53:10;9.70;53.30
79711;DHT22;69465;51.630;6.570;2023-05-19T04:55:37;9.90;53.30
79711;DHT22;69465;51.630;6.570;2023-05-19T04:58:03;10.00;52.30
79711;DHT22;69465;51.630;6.570;2023-05-19T05:00:31;10.20;51.90
79711;DHT22;69465;51.630;6.570;2023-05-19T05:02:58;10.30;51.50
79711;DHT22;69465;51.630;6.570;2023-05-19T05:05:25;10.60;51.10
79711;DHT22;69465;51.630;6.570;2023-05-19T05:07:51;11.00;50.70
79711;DHT22;69465;51.630;6.570;2023-05-19T05:10:18;11.70;49.00
79711;DHT22;69465;51.630;6.570;2023-05-19T05:12:45;12.30;47.00
79711;DHT22;69465;51.630;6.570;2023-05-19T05:15:12;13.20;45.10
79711;DHT22;69465;51.630;6.570;2023-05-19T05:17:39;14.10;43.00
79711;DHT22;69465;51.630;6.570;2023-05-19T05:20:07;14.80;41.30
79711;DHT22;69465;51.630;6.570;2023-05-19T05:22:34;15.50;39.60
79711;DHT22;69465;51.630;6.570;2023-05-19T05:25:01;16.40;37.40
79711;DHT22;69465;51.630;6.570;2023-05-19T05:27:28;17.30;35.80
79711;DHT22;69465;51.630;6.570;2023-05-19T05:29:55;18.20;34.30
79711;DHT22;69465;51.630;6.570;2023-05-19T05:32:24;19.10;32.60
79711;DHT22;69465;51.630;6.570;2023-05-19T05:34:51;19.90;29.60
79711;DHT22;69465;51.630;6.570;2023-05-19T05:37:18;20.60;28.90
79711;DHT22;69465;51.630;6.570;2023-05-19T05:39:45;21.20;27.30
79711;DHT22;69465;51.630;6.570;2023-05-19T05:42:12;21.60;26.10
79711;DHT22;69465;51.630;6.570;2023-05-19T05:44:38;22.00;25.90
79711;DHT22;69465;51.630;6.570;2023-05-19T05:47:06;22.40;25.00
79711;DHT22;69465;51.630;6.570;2023-05-19T05:49:33;22.80;24.20
79711;DHT22;69465;51.630;6.570;2023-05-19T05:52:01;23.10;23.60
79711;DHT22;69465;51.630;6.570;2023-05-19T05:54:32;23.20;23.90
79711;DHT22;69465;51.630;6.570;2023-05-19T05:56:59;23.40;23.60
79711;DHT22;69465;51.630;6.570;2023-05-19T05:59:26;23.60;23.40
79711;DHT22;69465;51.630;6.570;2023-05-19T06:01:53;23.70;23.10
79711;DHT22;69465;51.630;6.570;2023-05-19T06:04:19;23.90;22.50
79711;DHT22;69465;51.630;6.570;2023-05-19T06:06:46;23.90;22.50
79711;DHT22;69465;51.630;6.570;2023-05-19T06:09:13;23.90;22.40
79711;DHT22;69465;51.630;6.570;2023-05-19T06:11:40;24.10;22.20
79711;DHT22;69465;51.630;6.570;2023-05-19T06:14:06;24.40;21.70
79711;DHT22;69465;51.630;6.570;2023-05-19T06:16:33;24.80;21.50
79711;DHT22;69465;51.630;6.570;2023-05-19T06:19:00;25.20;20.70
79711;DHT22;69465;51.630;6.570;2023-05-19T06:21:27;25.50;20.10
79711;DHT22;69465;51.630;6.570;2023-05-19T06:23:53;25.30;20.50
79711;DHT22;69465;51.630;6.570;2023-05-19T06:26:20;25.30;20.60
79711;DHT22;69465;51.630;6.570;2023-05-19T06:28:47;25.50;20.70
79711;DHT22;69465;51.630;6.570;2023-05-19T06:31:13;25.60;19.70
79711;DHT22;69465;51.630;6.570;2023-05-19T06:33:40;25.10;20.10
79711;DHT22;69465;51.630;6.570;2023-05-19T06:36:07;25.00;20.90
79711;DHT22;69465;51.630;6.570;2023-05-19T06:38:34;24.90;20.90
79711;DHT22;69465;51.630;6.570;2023-05-19T06:41:01;25.00;20.60
79711;DHT22;69465;51.630;6.570;2023-05-19T06:43:28;25.20;20.50
79711;DHT22;69465;51.630;6.570;2023-05-19T06:45:56;25.20;20.10
79711;DHT22;69465;51.630;6.570;2023-05-19T06:48:22;25.10;20.30
79711;DHT22;69465;51.630;6.570;2023-05-19T06:50:49;25.00;21.10
79711;DHT22;69465;51.630;6.570;2023-05-19T06:53:17;25.10;20.60
79711;DHT22;69465;51.630;6.570;2023-05-19T06:55:44;25.30;20.00
79711;DHT22;69465;51.630;6.570;2023-05-19T06:58:25;25.50;20.20
79711;DHT22;69465;51.630;6.570;2023-05-19T07:00:52;25.70;20.40
79711;DHT22;69465;51.630;6.570;2023-05-19T07:03:19;25.90;19.50
79711;DHT22;69465;51.630;6.570;2023-05-19T07:05:46;25.90;19.70
79711;DHT22;69465;51.630;6.570;2023-05-19T07:08:13;26.20;19.40
79711;DHT22;69465;51.630;6.570;2023-05-19T07:10:40;26.60;19.10
79711;DHT22;69465;51.630;6.570;2023-05-19T07:13:07;27.00;18.50
79711;DHT22;69465;51.630;6.570;2023-05-19T07:15:33;27.40;18.20
79711;DHT22;69465;51.630;6.570;2023-05-19T07:18:00;27.70;18.30
79711;DHT22;69465;51.630;6.570;2023-05-19T07:20:27;28.00;17.60
79711;DHT22;69465;51.630;6.570;2023-05-19T07:22:54;28.30;17.70
79711;DHT22;69465;51.630;6.570;2023-05-19T07:25:21;28.30;16.50
79711;DHT22;69465;51.630;6.570;2023-05-19T07:27:48;28.40;16.70
79711;DHT22;69465;51.630;6.570;2023-05-19T07:30:15;28.50;17.50
79711;DHT22;69465;51.630;6.570;2023-05-19T07:32:41;28.40;16.40
79711;DHT22;69465;51.630;6.570;2023-05-19T07:35:08;28.00;17.20
79711;DHT22;69465;51.630;6.570;2023-05-19T07:37:35;27.90;16.90
79711;DHT22;69465;51.630;6.570;2023-05-19T07:40:02;27.80;17.40
79711;DHT22;69465;51.630;6.570;2023-05-19T07:42:29;27.80;17.40
79711;DHT22;69465;51.630;6.570;2023-05-19T07:44:56;27.60;17.20
79711;DHT22;69465;51.630;6.570;2023-05-19T07:47:22;27.30;17.00
79711;DHT22;69465;51.630;6.570;2023-05-19T07:49:49;27.30;17.30
79711;DHT22;69465;51.630;6.570;2023-05-19T07:52:17;27.40;17.40
79711;DHT22;69465;51.630;6.570;2023-05-19T07:54:44;27.60;18.20
79711;DHT22;69465;51.630;6.570;2023-05-19T07:57:12;27.70;17.20
79711;DHT22;69465;51.630;6.570;2023-05-19T07:59:38;28.20;16.80
79711;DHT22;69465;51.630;6.570;2023-05-19T08:02:06;28.50;16.50
79711;DHT22;69465;51.630;6.570;2023-05-19T08:04:33;28.90;16.10
79711;DHT22;69465;51.630;6.570;2023-05-19T08:07:00;29.00;15.90
79711;DHT22;69465;51.630;6.570;2023-05-19T08:09:27;28.90;15.50
79711;DHT22;69465;51.630;6.570;2023-05-19T08:11:54;28.60;16.30
79711;DHT22;69465;51.630;6.570;2023-05-19T08:14:21;28.40;16.70
79711;DHT22;69465;51.630;6.570;2023-05-19T08:16:48;28.30;16.50
79711;DHT22;69465;51.630;6.570;2023-05-19T08:19:15;28.10;16.10
79711;DHT22;69465;51.630;6.570;2023-05-19T08:21:42;28.30;16.60
79711;DHT22;69465;51.630;6.570;2023-05-19T08:24:09;28.50;15.70
79711;DHT22;69465;51.630;6.570;2023-05-19T08:26:35;28.30;15.60
79711;DHT22;69465;51.630;6.570;2023-05-19T08:29:03;27.80;17.00
79711;DHT22;69465;51.630;6.570;2023-05-19T08:31:30;27.50;16.90
79711;DHT22;69465;51.630;6.570;2023-05-19T08:33:57;27.60;17.60
79711;DHT22;69465;51.630;6.570;2023-05-19T08:36:24;27.80;18.30
79711;DHT22;69465;51.630;6.570;2023-05-19T08:38:50;28.00;16.70
79711;DHT22;69465;51.630;6.570;2023-05-19T08:41:17;28.30;16.00
79711;DHT22;69465;51.630;6.570;2023-05-19T08:43:44;28.10;17.10
79711;DHT22;69465;51.630;6.570;2023-05-19T08:46:12;28.30;16.90
79711;DHT22;69465;51.630;6.570;2023-05-19T08:48:41;28.30;16.00
79711;DHT22;69465;51.630;6.570;2023-05-19T08:53:52;28.40;15.40
79711;DHT22;69465;51.630;6.570;2023-05-19T08:56:22;28.50;15.00
79711;DHT22;69465;51.630;6.570;2023-05-19T08:58:50;28.50;15.20
79711;DHT22;69465;51.630;6.570;2023-05-19T09:01:18;28.10;14.30
79711;DHT22;69465;51.630;6.570;2023-05-19T09:03:46;27.90;14.50
79711;DHT22;69465;51.630;6.570;2023-05-19T09:06:13;27.80;15.60
79711;DHT22;69465;51.630;6.570;2023-05-19T09:08:41;27.40;15.30
79711;DHT22;69465;51.630;6.570;2023-05-19T09:11:09;27.50;15.30
79711;DHT22;69465;51.630;6.570;2023-05-19T09:13:36;27.50;14.00
79711;DHT22;69465;51.630;6.570;2023-05-19T09:16:03;27.20;14.70
79711;DHT22;69465;51.630;6.570;2023-05-19T09:18:30;27.00;15.20
79711;DHT22;69465;51.630;6.570;2023-05-19T09:20:58;27.00;15.40
79711;DHT22;69465;51.630;6.570;2023-05-19T09:23:30;26.90;15.80
79711;DHT22;69465;51.630;6.570;2023-05-19T09:26:03;26.80;17.50
79711;DHT22;69465;51.630;6.570;2023-05-19T09:28:32;27.00;15.50
79711;DHT22;69465;51.630;6.570;2023-05-19T09:33:29;26.90;17.30
79711;DHT22;69465;51.630;6.570;2023-05-19T09:35:58;26.70;14.40
79711;DHT22;69465;51.630;6.570;2023-05-19T09:38:25;26.60;14.70
79711;DHT22;69465;51.630;6.570;2023-05-19T09:40:55;26.20;15.00
79711;DHT22;69465;51.630;6.570;2023-05-19T09:43:22;25.90;15.70
79711;DHT22;69465;51.630;6.570;2023-05-19T09:48:33;26.30;15.20
79711;DHT22;69465;51.630;6.570;2023-05-19T09:51:06;26.10;15.80
79711;DHT22;69465;51.630;6.570;2023-05-19T09:53:34;26.40;16.30
79711;DHT22;69465;51.630;6.570;2023-05-19T09:56:01;26.80;15.80
79711;DHT22;69465;51.630;6.570;2023-05-19T09:58:32;27.00;15.10
79711;DHT22;69465;51.630;6.570;2023-05-19T10:01:00;26.80;14.30
79711;DHT22;69465;51.630;6.570;2023-05-19T10:03:27;26.50;16.10
79711;DHT22;69465;51.630;6.570;2023-05-19T10:05:54;26.40;15.60
79711;DHT22;69465;51.630;6.570;2023-05-19T10:08:21;26.80;15.50
79711;DHT22;69465;51.630;6.570;2023-05-19T10:10:49;26.60;15.00
79711;DHT22;69465;51.630;6.570;2023-05-19T10:13:15;26.70;15.00
79711;DHT22;69465;51.630;6.570;2023-05-19T10:15:42;27.00;14.10
79711;DHT22;69465;51.630;6.570;2023-05-19T10:18:24;27.20;15.70
79711;DHT22;69465;51.630;6.570;2023-05-19T10:20:51;27.50;14.00
79711;DHT22;69465;51.630;6.570;2023-05-19T10:23:18;27.50;14.40
79711;DHT22;69465;51.630;6.570;2023-05-19T10:25:45;27.70;15.20
79711;DHT22;69465;51.630;6.570;2023-05-19T10:28:14;27.80;14.10
79711;DHT22;69465;51.630;6.570;2023-05-19T10:30:44;27.90;14.60
79711;DHT22;69465;51.630;6.570;2023-05-19T10:33:14;28.00;14.80
79711;DHT22;69465;51.630;6.570;2023-05-19T10:38:14;28.20;13.60
79711;DHT22;69465;51.630;6.570;2023-05-19T10:41:02;28.40;14.40
79711;DHT22;69465;51.630;6.570;2023-05-19T10:43:50;28.70;13.50
79711;DHT22;69465;51.630;6.570;2023-05-19T10:46:26;28.60;14.20
79711;DHT22;69465;51.630;6.570;2023-05-19T10:48:54;28.60;14.10
79711;DHT22;69465;51.630;6.570;2023-05-19T10:51:30;28.70;13.80
79711;DHT22;69465;51.630;6.570;2023-05-19T10:54:00;28.50;15.90
79711;DHT22;69465;51.630;6.570;2023-05-19T10:58:55;27.60;14.10
79711;DHT22;69465;51.630;6.570;2023-05-19T11:01:35;27.40;14.60
79711;DHT22;69465;51.630;6.570;2023-05-19T11:04:08;27.10;15.70
79711;DHT22;69465;51.630;6.570;2023-05-19T11:06:35;27.00;15.60
79711;DHT22;69465;51.630;6.570;2023-05-19T11:09:15;26.70;15.70
79711;DHT22;69465;51.630;6.570;2023-05-19T11:11:53;25.90;16.10
79711;DHT22;69465;51.630;6.570;2023-05-19T11:14:25;25.70;16.10
79711;DHT22;69465;51.630;6.570;2023-05-19T11:16:55;25.80;16.90
79711;DHT22;69465;51.630;6.570;2023-05-19T11:19:31;25.60;17.20
79711;DHT22;69465;51.630;6.570;2023-05-19T11:22:10;25.30;16.40
79711;DHT22;69465;51.630;6.570;2023-05-19T11:27:28;24.80;16.80
79711;DHT22;69465;51.630;6.570;2023-05-19T11:29:57;24.70;17.30
79711;DHT22;69465;51.630;6.570;2023-05-19T11:32:29;24.40;19.10
79711;DHT22;69465;51.630;6.570;2023-05-19T11:34:56;24.00;17.60
79711;DHT22;69465;51.630;6.570;2023-05-19T11:37:23;23.60;18.80
79711;DHT22;69465;51.630;6.570;2023-05-19T11:39:50;23.40;19.20
79711;DHT22;69465;51.630;6.570;2023-05-19T11:42:18;23.10;19.80
79711;DHT22;69465;51.630;6.570;2023-05-19T11:44:45;22.80;18.90
79711;DHT22;69465;51.630;6.570;2023-05-19T11:47:15;22.70;19.50
79711;DHT22;69465;51.630;6.570;2023-05-19T11:49:52;22.60;21.00
79711;DHT22;69465;51.630;6.570;2023-05-19T11:52:23;22.60;22.60
79711;DHT22;69465;51.630;6.570;2023-05-19T11:54:50;22.70;20.40
79711;DHT22;69465;51.630;6.570;2023-05-19T11:57:18;22.70;19.20
79711;DHT22;69465;51.630;6.570;2023-05-19T11:59:45;22.70;20.30
79711;DHT22;69465;51.630;6.570;2023-05-19T12:04:38;22.50;20.00
79711;DHT22;69465;51.630;6.570;2023-05-19T12:07:05;22.40;20.40
79711;DHT22;69465;51.630;6.570;2023-05-19T12:09:32;22.40;20.60
79711;DHT22;69465;51.630;6.570;2023-05-19T12:11:59;22.50;20.70
79711;DHT22;69465;51.630;6.570;2023-05-19T12:14:29;22.70;21.50
79711;DHT22;69465;51.630;6.570;2023-05-19T12:16:56;22.60;21.20
79711;DHT22;69465;51.630;6.570;2023-05-19T12:19:23;22.70;22.30
79711;DHT22;69465;51.630;6.570;2023-05-19T12:21:51;22.80;21.80
79711;DHT22;69465;51.630;6.570;2023-05-19T12:24:19;22.80;21.20
79711;DHT22;69465;51.630;6.570;2023-05-19T12:26:45;22.60;19.20
79711;DHT22;69465;51.630;6.570;2023-05-19T12:29:12;22.50;20.60
79711;DHT22;69465;51.630;6.570;2023-05-19T12:31:39;22.40;19.20
79711;DHT22;69465;51.630;6.570;2023-05-19T12:34:06;22.30;22.70
79711;DHT22;69465;51.630;6.570;2023-05-19T12:36:33;22.40;19.30
79711;DHT22;69465;51.630;6.570;2023-05-19T12:39:00;22.50;22.20
79711;DHT22;69465;51.630;6.570;2023-05-19T12:41:28;22.60;20.30
79711;DHT22;69465;51.630;6.570;2023-05-19T12:43:55;22.60;19.50
79711;DHT22;69465;51.630;6.570;2023-05-19T12:46:21;22.70;21.10
79711;DHT22;69465;51.630;6.570;2023-05-19T12:48:48;22.70;19.50
79711;DHT22;69465;51.630;6.570;2023-05-19T12:51:16;22.80;19.60
79711;DHT22;69465;51.630;6.570;2023-05-19T12:53:44;22.80;22.00
79711;DHT22;69465;51.630;6.570;2023-05-19T12:56:12;22.70;19.50
79711;DHT22;69465;51.630;6.570;2023-05-19T12:58:43;22.70;18.90
79711;DHT22;69465;51.630;6.570;2023-05-19T13:01:17;22.70;20.10
79711;DHT22;69465;51.630;6.570;2023-05-19T13:03:44;22.80;20.90
79711;DHT22;69465;51.630;6.570;2023-05-19T13:06:11;22.80;23.70
79711;DHT22;69465;51.630;6.570;2023-05-19T13:08:39;22.90;21.70
79711;DHT22;69465;51.630;6.570;2023-05-19T13:11:06;22.80;22.90
79711;DHT22;69465;51.630;6.570;2023-05-19T13:13:33;22.90;20.80
79711;DHT22;69465;51.630;6.570;2023-05-19T13:15:59;22.90;19.30
79711;DHT22;69465;51.630;6.570;2023-05-19T13:18:26;22.70;19.10
79711;DHT22;69465;51.630;6.570;2023-05-19T13:20:53;22.60;22.70
79711;DHT22;69465;51.630;6.570;2023-05-19T13:23:20;22.60;22.70
79711;DHT22;69465;51.630;6.570;2023-05-19T13:25:46;22.60;24.00
79711;DHT22;69465;51.630;6.570;2023-05-19T13:28:13;22.70;22.20
79711;DHT22;69465;51.630;6.570;2023-05-19T13:30:40;22.60;20.80
79711;DHT22;69465;51.630;6.570;2023-05-19T13:33:07;22.70;19.50
79711;DHT22;69465;51.630;6.570;2023-05-19T13:35:33;22.80;21.20
79711;DHT22;69465;51.630;6.570;2023-05-19T13:38:01;22.80;19.60
79711;DHT22;69465;51.630;6.570;2023-05-19T13:40:28;22.70;19.50
79711;DHT22;69465;51.630;6.570;2023-05-19T13:42:54;22.60;20.20
79711;DHT22;69465;51.630;6.570;2023-05-19T13:45:21;22.50;19.70
79711;DHT22;69465;51.630;6.570;2023-05-19T13:47:47;22.50;19.60
79711;DHT22;69465;51.630;6.570;2023-05-19T13:50:14;22.50;19.40
79711;DHT22;69465;51.630;6.570;2023-05-19T13:52:41;22.60;20.20
79711;DHT22;69465;51.630;6.570;2023-05-19T13:55:07;22.70;19.50
79711;DHT22;69465;51.630;6.570;2023-05-19T13:57:34;22.70;20.10
79711;DHT22;69465;51.630;6.570;2023-05-19T14:00:01;22.70;18.70
79711;DHT22;69465;51.630;6.570;2023-05-19T14:02:29;22.60;20.20
79711;DHT22;69465;51.630;6.570;2023-05-19T14:04:56;22.50;20.20
79711;DHT22;69465;51.630;6.570;2023-05-19T14:07:23;22.40;21.10
79711;DHT22;69465;51.630;6.570;2023-05-19T14:09:50;22.50;21.60
79711;DHT22;69465;51.630;6.570;2023-05-19T14:12:17;22.50;20.70
79711;DHT22;69465;51.630;6.570;2023-05-19T14:14:43;22.50;20.40
79711;DHT22;69465;51.630;6.570;2023-05-19T14:17:10;22.60;20.10
79711;DHT22;69465;51.630;6.570;2023-05-19T14:19:39;22.60;19.80
79711;DHT22;69465;51.630;6.570;2023-05-19T14:22:06;22.60;20.40
79711;DHT22;69465;51.630;6.570;2023-05-19T14:24:33;22.60;20.50
79711;DHT22;69465;51.630;6.570;2023-05-19T14:27:00;22.50;19.40
79711;DHT22;69465;51.630;6.570;2023-05-19T14:29:27;22.40;19.30
79711;DHT22;69465;51.630;6.570;2023-05-19T14:31:53;22.40;20.00
79711;DHT22;69465;51.630;6.570;2023-05-19T14:34:20;22.20;19.20
79711;DHT22;69465;51.630;6.570;2023-05-19T14:36:47;22.20;20.60
79711;DHT22;69465;51.630;6.570;2023-05-19T14:39:14;22.20;20.50
79711;DHT22;69465;51.630;6.570;2023-05-19T14:41:40;22.30;21.20
79711;DHT22;69465;51.630;6.570;2023-05-19T14:44:07;22.50;23.20
79711;DHT22;69465;51.630;6.570;2023-05-19T14:46:33;22.50;21.70
79711;DHT22;69465;51.630;6.570;2023-05-19T14:49:00;22.50;20.70
79711;DHT22;69465;51.630;6.570;2023-05-19T14:51:26;22.40;19.10
79711;DHT22;69465;51.630;6.570;2023-05-19T14:53:53;22.30;21.20
79711;DHT22;69465;51.630;6.570;2023-05-19T14:56:19;22.30;20.70
79711;DHT22;69465;51.630;6.570;2023-05-19T14:58:46;22.40;20.90
79711;DHT22;69465;51.630;6.570;2023-05-19T15:01:13;22.40;19.90
79711;DHT22;69465;51.630;6.570;2023-05-19T15:03:39;22.40;19.30
79711;DHT22;69465;51.630;6.570;2023-05-19T15:06:09;22.30;19.60
79711;DHT22;69465;51.630;6.570;2023-05-19T15:08:36;22.30;19.30
79711;DHT22;69465;51.630;6.570;2023-05-19T15:11:03;22.20;20.70
79711;DHT22;69465;51.630;6.570;2023-05-19T15:13:30;22.20;20.00
79711;DHT22;69465;51.630;6.570;2023-05-19T15:15:57;22.30;19.30
79711;DHT22;69465;51.630;6.570;2023-05-19T15:18:42;22.40;20.80
79711;DHT22;69465;51.630;6.570;2023-05-19T15:21:09;22.40;20.30
79711;DHT22;69465;51.630;6.570;2023-05-19T15:23:35;22.30;20.50
79711;DHT22;69465;51.630;6.570;2023-05-19T15:26:02;22.10;20.70
79711;DHT22;69465;51.630;6.570;2023-05-19T15:28:29;21.90;20.40
79711;DHT22;69465;51.630;6.570;2023-05-19T15:30:55;21.90;21.40
79711;DHT22;69465;51.630;6.570;2023-05-19T15:33:22;22.00;21.40
79711;DHT22;69465;51.630;6.570;2023-05-19T15:35:49;22.00;22.50
79711;DHT22;69465;51.630;6.570;2023-05-19T15:38:17;22.10;20.60
79711;DHT22;69465;51.630;6.570;2023-05-19T15:40:43;22.10;21.50
79711;DHT22;69465;51.630;6.570;2023-05-19T15:43:10;22.20;21.10
79711;DHT22;69465;51.630;6.570;2023-05-19T15:45:37;22.20;21.70
79711;DHT22;69465;51.630;6.570;2023-05-19T15:48:03;22.00;20.90
79711;DHT22;69465;51.630;6.570;2023-05-19T15:50:31;21.80;20.80
79711;DHT22;69465;51.630;6.570;2023-05-19T15:52:57;21.60;21.50
79711;DHT22;69465;51.630;6.570;2023-05-19T15:55:24;21.50;21.10
79711;DHT22;69465;51.630;6.570;2023-05-19T15:57:51;21.50;21.20
79711;DHT22;69465;51.630;6.570;2023-05-19T16:00:18;21.60;20.90
79711;DHT22;69465;51.630;6.570;2023-05-19T16:02:44;21.80;21.80
79711;DHT22;69465;51.630;6.570;2023-05-19T16:05:11;22.10;21.50
79711;DHT22;69465;51.630;6.570;2023-05-19T16:07:38;22.20;21.30
79711;DHT22;69465;51.630;6.570;2023-05-19T16:10:04;22.10;20.50
79711;DHT22;69465;51.630;6.570;2023-05-19T16:12:31;22.00;21.00
79711;DHT22;69465;51.630;6.570;2023-05-19T16:14:58;21.80;20.50
79711;DHT22;69465;51.630;6.570;2023-05-19T16:17:24;21.40;21.10
79711;DHT22;69465;51.630;6.570;2023-05-19T16:19:51;21.20;21.30